Werte bis 5 Uhr SommerzeitDiagramme Mardorf: Tagesdaten MonatsdatenCSV-Datei: Mardorf21.csv

Wetterdaten 2021 Station: Mardorf
Temperaturen in °C relative Nieder- Global- Wind Wind Wind- Sonnen-
Datum Boden Boden Luft Luft Luft Luft Feuchte schlag strahlung max richtung schein
20 cm 5 cm 20 cm 2 m 2 m max 2 m min % mm W/m2*d m/s m/s ° h

27.10.2021 10,1 9,7 6,8 8,9 9,7 8,3 90 0,0 0 3,2 6,9 --- ---
26.10.2021 9,7 9,5 10,3 10,8 13,9 8,6 85 0,2 1401 3,2 8,4 --- 5,7
25.10.2021 9,3 8,3 5,8 7,0 14,8 1,4 85 0,0 1927 1,3 7,0 --- 6,4
24.10.2021 9,8 8,7 4,0 5,1 14,9 -2,8 81 0,1 2302 0,7 7,6 --- 6,6
23.10.2021 10,4 9,6 5,5 5,9 11,4 1,6 86 0,2 1762 1,3 6,0 --- 6,2
22.10.2021 11,0 10,1 5,3 6,1 10,0 2,7 88 2,1 1449 5,0 14,4 --- 4,2
21.10.2021 11,8 11,7 9,5 10,4 15,8 2,9 84 4,3 720 7,5 24,7 --- 1,5
20.10.2021 11,4 11,5 13,2 14,3 17,2 11,3 85 0,8 1097 4,4 14,6 --- 3,6
19.10.2021 11,0 10,6 9,9 10,5 14,3 6,6 96 0,7 416 2,2 9,1 --- 0,2
18.10.2021 10,8 10,2 6,7 6,9 12,6 1,1 92 0,0 2148 1,4 6,3 --- 6,9
17.10.2021 11,1 10,4 6,6 6,8 14,3 1,1 87 0,0 2268 0,9 4,5 --- 6,9
16.10.2021 11,3 10,6 5,7 5,7 13,9 1,4 92 0,2 2081 0,8 3,4 --- 6,8
15.10.2021 11,9 11,5 8,5 9,0 12,9 4,0 91 0,1 903 3,1 11,1 --- 2,7
14.10.2021 11,9 11,6 9,4 9,5 11,1 8,0 96 0,6 492 3,5 8,9 --- 0,6
13.10.2021 11,7 11,2 8,3 7,7 12,5 4,9 94 0,0 1555 1,0 4,4 --- 5,4
12.10.2021 11,9 11,4 7,6 8,2 11,9 4,1 93 0,0 861 2,0 9,1 --- 2,2
11.10.2021 11,8 11,0 7,5 8,1 14,1 3,2 91 0,0 1326 0,8 4,7 --- 3,5
10.10.2021 12,2 11,3 5,6 6,0 15,3 -0,1 87 0,1 2566 1,0 3,3 --- 7,8
09.10.2021 12,9 12,1 8,2 8,6 16,8 2,9 82 0,0 3121 1,7 8,7 --- 7,2
08.10.2021 13,7 13,0 8,4 8,7 16,4 3,3 93 0,0 1792 1,0 5,9 --- 6,3
07.10.2021 14,3 14,1 11,2 11,1 17,4 6,7 90 0,0 1574 1,4 6,8 --- 5,4
06.10.2021 14,4 14,2 11,5 11,2 14,2 9,9 85 0,0 2020 4,5 12,8 --- 5,9
05.10.2021 14,5 14,3 11,9 11,6 15,5 8,9 91 7,1 1547 1,8 12,3 --- 6,6
04.10.2021 14,9 14,8 12,3 12,4 15,6 9,9 84 0,0 1418 1,9 6,6 --- 6,1
03.10.2021 14,8 15,0 18,0 18,9 23,1 13,1 63 1,3 945 3,8 17,8 --- 3,0
02.10.2021 14,4 14,4 15,0 15,3 19,7 11,6 70 0,0 2115 2,6 12,2 --- 7,1
01.10.2021 14,3 13,9 12,6 12,9 19,7 6,4 65 0,0 3246 1,9 8,4 --- 7,2
30.09.2021 14,7 14,1 10,2 10,0 15,6 6,5 79 0,0 2839 3,9 9,5 --- 7,6
29.09.2021 15,4 15,1 10,9 10,8 17,7 7,8 88 5,5 2246 2,8 20,2 --- 6,8
28.09.2021 16,0 16,0 13,3 12,8 18,9 8,9 86 0,2 3143 1,1 4,4 --- 7,8
27.09.2021 16,0 16,5 17,4 17,2 21,7 12,9 88 0,6 1890 2,3 8,2 --- 6,3
26.09.2021 15,6 15,8 16,8 16,8 24,3 11,2 88 0,9 2245 1,5 9,0 --- 5,9
25.09.2021 15,5 15,5 16,0 16,0 24,4 10,3 82 0,0 3666 1,4 7,0 --- 7,8
24.09.2021 15,4 15,6 15,7 15,8 18,4 13,4 85 0,0 1325 2,2 8,9 --- 4,8
23.09.2021 14,9 14,6 14,3 14,7 21,8 8,4 75 0,0 3656 3,2 11,9 --- 8,0
22.09.2021 15,0 14,6 12,8 12,3 20,3 5,8 83 0,0 3546 1,1 5,8 --- 9,3
21.09.2021 15,2 14,7 10,7 10,3 17,5 4,5 82 0,0 2654 1,0 4,4 --- 7,7
20.09.2021 15,8 15,1 9,4 9,3 15,1 5,0 82 0,0 2006 1,9 6,1 --- 7,2
19.09.2021 16,7 16,4 12,4 12,3 14,1 6,1 81 0,0 1614 3,0 8,3 --- 6,3
18.09.2021 16,9 16,9 14,9 14,5 20,7 10,7 86 0,0 2846 1,3 5,2 --- 7,4
17.09.2021 17,2 17,1 14,2 14,0 18,8 9,4 91 0,0 2043 1,2 4,6 --- 6,7
16.09.2021 17,8 18,1 15,5 15,2 18,6 11,1 88 0,0 1931 1,1 5,4 --- 4,9
15.09.2021 17,7 18,2 18,6 18,4 21,3 15,9 93 1,1 1531 1,7 6,9 --- 6,1
14.09.2021 17,4 17,6 17,5 17,3 26,7 8,6 82 0,0 3892 1,1 6,0 --- 9,0
13.09.2021 17,8 17,9 15,4 15,0 22,6 9,6 86 0,0 3598 1,2 5,2 --- 8,8
12.09.2021 18,0 18,5 17,8 17,0 23,0 12,8 84 0,0 3309 1,5 6,2 --- 8,6
11.09.2021 18,1 18,8 18,8 18,1 23,0 13,8 89 0,7 2868 2,0 7,4 --- 7,0
10.09.2021 17,8 18,5 20,0 19,8 25,1 16,5 85 2,0 2769 1,8 8,7 --- 7,6
09.09.2021 17,2 17,6 19,3 19,3 28,3 10,8 77 0,0 4372 1,5 8,5 --- 9,4
08.09.2021 17,1 17,3 18,0 18,1 27,5 9,8 76 0,0 4871 1,4 6,5 --- 9,9
07.09.2021 17,1 17,4 17,6 17,4 25,7 11,4 74 0,0 4343 1,0 5,4 --- 10,2
06.09.2021 16,9 17,1 16,6 16,5 26,6 9,4 77 0,0 4423 1,0 5,2 --- 9,4
05.09.2021 16,9 17,1 15,8 15,2 24,6 7,7 80 0,2 4735 1,6 5,9 --- 10,2
04.09.2021 17,0 17,4 16,4 15,4 23,9 9,9 86 0,0 4847 1,7 6,7 --- 9,3
03.09.2021 16,7 17,0 16,9 16,1 26,3 8,3 81 0,0 4914 1,0 4,3 --- 9,8
02.09.2021 16,5 16,6 15,2 14,7 23,8 8,4 84 0,0 4290 1,3 6,0 --- 10,3
01.09.2021 16,7 16,8 15,0 14,3 19,6 10,0 85 0,0 2773 1,4 5,7 --- 10,3
31.08.2021 16,7 16,8 15,4 15,1 20,2 10,7 86 0,0 2688 1,2 5,5 --- 8,7
30.08.2021 16,8 16,9 15,1 15,2 17,1 14,2 93 4,7 1355 1,7 7,8 --- 3,7
29.08.2021 16,9 17,0 14,4 14,1 15,6 12,9 98 14,0 1189 1,0 4,8 --- 3,7
28.08.2021 16,8 16,9 15,0 14,1 19,6 10,5 89 7,1 2954 0,8 7,2 --- 7,7
27.08.2021 17,0 16,8 13,0 12,8 16,6 9,6 93 3,5 1832 1,3 7,2 --- 7,0
26.08.2021 17,5 17,6 15,2 14,6 21,0 10,7 83 2,2 2873 1,4 8,4 --- 7,3
25.08.2021 17,3 17,3 15,2 14,9 23,4 6,6 74 0,1 5166 1,1 5,8 --- 10,0
24.08.2021 17,6 17,5 14,7 14,0 21,7 7,8 79 0,1 5055 2,3 8,8 --- 10,9
23.08.2021 18,1 18,2 15,7 15,4 21,1 10,9 90 0,5 2187 1,2 6,9 --- 7,1
22.08.2021 18,4 18,7 17,6 17,2 22,6 13,8 89 5,0 2923 1,7 9,2 --- 7,2
21.08.2021 18,1 18,5 19,3 18,7 26,7 12,4 79 0,0 4651 0,8 4,1 --- 10,3
20.08.2021 18,0 18,4 18,2 17,4 22,7 13,9 81 0,0 3567 1,7 5,9 --- 9,1
19.08.2021 17,8 18,0 17,3 16,9 20,7 14,8 86 0,2 2040 3,2 9,0 --- 6,4
18.08.2021 17,7 17,7 15,9 15,2 18,8 12,2 89 0,0 2092 3,0 6,8 --- 7,8
17.08.2021 18,1 17,9 13,3 13,0 17,2 9,9 84 0,8 2526 3,6 10,1 --- 7,8
16.08.2021 19,0 19,0 15,4 15,7 20,1 9,9 80 0,8 2392 3,2 11,7 --- 7,4
15.08.2021 19,2 19,7 19,3 19,1 26,9 11,4 73 0,0 5505 1,9 7,4 --- 11,3
14.08.2021 19,2 19,8 20,4 20,1 28,5 12,0 70 0,0 6290 2,3 8,9 --- 11,2
13.08.2021 18,9 19,7 21,0 21,0 29,8 13,6 77 0,0 5206 1,6 7,7 --- 10,6
12.08.2021 18,6 19,1 19,9 19,3 27,0 12,0 78 0,0 4968 1,5 6,6 --- 11,3
11.08.2021 18,2 18,9 19,3 18,1 25,6 12,7 82 0,1 4558 1,0 5,1 --- 10,6
10.08.2021 17,8 18,1 17,1 15,9 22,8 11,6 86 8,0 4281 1,9 10,2 --- 8,8
09.08.2021 17,9 18,0 16,8 16,5 22,1 12,2 75 2,0 3861 2,4 9,8 --- 10,5
08.08.2021 18,3 18,5 16,2 15,6 21,4 12,5 81 0,4 3893 4,2 14,6 --- 9,4
07.08.2021 18,5 18,7 18,4 17,7 22,3 12,3 77 1,9 3927 2,8 11,5 --- 11,8
06.08.2021 18,6 19,0 17,9 17,4 23,7 13,0 84 0,2 3685 2,8 11,7 --- 9,2
05.08.2021 18,6 19,1 17,9 17,0 24,6 13,0 88 4,2 4106 0,9 7,1 --- 10,0
04.08.2021 18,3 18,7 17,5 16,5 23,9 12,5 87 2,8 4242 0,6 4,9 --- 7,5
03.08.2021 18,5 18,7 15,4 14,6 19,1 12,1 94 7,1 2520 0,6 4,9 --- 8,4
02.08.2021 18,5 18,8 16,6 15,5 20,1 12,8 91 12,8 3440 1,3 5,9 --- 10,1
01.08.2021 18,4 18,5 16,6 15,8 21,4 12,0 87 8,6 3485 1,3 6,1 --- 10,5
31.07.2021 18,9 19,0 17,3 17,2 21,7 12,6 68 0,0 3729 3,8 10,6 --- 11,9
30.07.2021 18,8 19,3 20,3 18,9 25,7 11,0 67 0,0 6773 2,8 9,2 --- 12,5
29.07.2021 19,1 19,3 18,4 17,9 22,7 12,8 68 0,8 4602 4,0 11,7 --- 11,6
28.07.2021 19,3 19,7 18,8 17,8 22,6 12,7 83 4,2 4515 2,8 9,2 --- 11,1
27.07.2021 19,5 20,2 19,4 18,3 25,3 15,0 84 9,9 4728 2,4 8,0 --- 10,3
26.07.2021 19,3 20,2 21,6 19,9 26,1 14,3 80 3,0 6131 1,8 7,2 --- 12,0
25.07.2021 18,8 19,7 22,5 20,9 27,8 14,2 77 6,5 5984 1,3 6,5 --- 12,2
24.07.2021 18,6 19,0 20,2 20,0 28,0 12,8 78 0,5 4020 1,4 7,7 --- 10,5
23.07.2021 18,4 18,9 20,0 18,9 27,4 11,5 75 0,0 6247 1,3 4,4 --- 12,3
22.07.2021 18,3 18,7 19,5 18,5 25,3 12,0 74 0,0 4471 1,0 3,7 --- 11,7
21.07.2021 18,3 18,4 16,9 16,0 25,1 8,6 77 0,0 4934 1,3 5,0 --- 12,4
20.07.2021 18,6 19,0 17,4 15,6 22,1 9,6 77 0,0 6324 1,5 10,4 --- 12,4
19.07.2021 18,9 19,5 18,6 17,5 22,2 14,0 77 0,0 4862 1,4 6,7 --- 11,0
18.07.2021 18,6 19,2 20,3 19,2 26,4 11,8 78 0,0 6441 1,6 7,2 --- 13,0
17.07.2021 18,5 19,2 20,5 19,4 25,7 15,0 79 0,0 4188 1,7 8,5 --- 11,8
16.07.2021 18,5 19,0 18,1 17,6 20,6 15,7 93 0,2 1843 1,1 5,4 --- 5,5
15.07.2021 18,2 18,8 19,7 18,3 25,5 13,7 84 4,6 5070 1,0 5,5 --- 10,7
14.07.2021 18,4 18,6 16,1 15,9 17,9 14,4 96 24,9 1053 1,9 7,9 --- 2,3
13.07.2021 18,5 19,1 19,2 18,6 24,7 15,3 92 15,6 2394 1,0 7,4 --- 6,7
12.07.2021 18,2 18,8 20,0 18,8 26,1 12,6 82 0,0 5336 1,2 5,4 --- 11,6
11.07.2021 18,2 18,6 17,6 16,9 20,7 14,7 93 6,6 2426 1,3 6,6 --- 6,9
10.07.2021 17,9 18,5 19,8 18,1 24,1 12,8 83 0,1 5782 1,5 5,5 --- 12,1
09.07.2021 18,2 18,4 15,6 15,4 16,9 14,0 97 7,5 1366 1,0 6,6 --- 4,5
08.07.2021 18,5 18,9 18,0 17,5 26,6 13,4 88 11,0 2977 0,8 5,1 --- 8,0
07.07.2021 18,1 18,9 21,2 19,1 24,9 13,7 73 2,0 6609 1,5 8,8 --- 12,0
06.07.2021 18,1 18,6 19,0 18,5 23,9 16,1 85 8,5 3357 2,6 11,1 --- 9,4
05.07.2021 18,2 18,6 18,0 17,2 20,3 13,2 89 3,3 3043 1,9 8,5 --- 8,8
04.07.2021 18,2 18,9 18,6 17,6 26,7 13,8 86 3,9 3768 1,1 9,4 --- 8,8
03.07.2021 17,6 18,1 19,3 17,8 26,7 9,3 77 0,1 6984 1,1 4,1 --- 12,4
02.07.2021 17,5 17,7 16,5 15,2 22,2 11,9 88 2,8 3934 1,5 3,9 --- 9,0
01.07.2021 18,3 18,2 13,6 13,3 14,6 12,5 98 5,1 1100 2,8 7,0 --- 1,5
30.06.2021 19,0 19,6 18,4 16,8 21,9 14,5 87 30,3 4763 2,8 9,2 --- 10,6
29.06.2021 18,9 20,0 21,6 20,0 27,3 15,6 84 31,5 5891 1,7 8,8 --- 11,1
28.06.2021 18,5 19,4 23,2 21,9 29,7 16,8 74 8,6 4291 1,4 7,9 --- 11,6
27.06.2021 17,9 18,8 21,8 20,3 28,1 12,2 71 0,0 6838 1,7 6,2 --- 12,4
26.06.2021 17,5 18,1 20,2 18,6 27,5 10,7 76 0,0 5988 1,0 5,6 --- 13,3
25.06.2021 17,3 17,9 19,2 17,5 22,6 13,8 83 19,6 5680 1,3 5,7 --- 12,1
24.06.2021 17,3 17,5 17,2 16,6 20,7 12,2 86 19,7 3109 1,1 6,1 --- 9,6
23.06.2021 17,5 17,8 17,0 17,1 22,9 12,4 85 0,0 4331 1,1 5,5 --- 12,1
22.06.2021 18,4 18,5 15,5 14,8 21,2 12,2 85 4,6 3666 1,6 6,9 --- 8,9
21.06.2021 19,3 20,3 20,1 19,7 24,7 14,2 81 16,5 6837 3,1 10,4 --- 13,1
20.06.2021 19,3 20,6 22,5 23,5 29,2 19,4 70 6,0 7090 2,8 10,6 --- 12,9
19.06.2021 18,9 20,5 23,9 25,2 31,2 19,2 65 0,0 7560 1,9 8,2 --- 12,5
18.06.2021 18,4 19,8 22,7 24,9 34,0 16,6 65 0,0 7395 1,1 5,8 --- 12,2
17.06.2021 17,9 19,4 22,5 25,2 33,2 15,5 62 0,0 7840 1,6 6,6 --- 13,1
16.06.2021 17,1 18,3 20,9 21,7 30,3 12,5 74 0,0 7035 1,4 5,5 --- 12,9
15.06.2021 16,8 17,7 18,7 19,3 26,8 11,9 74 0,0 6626 1,5 6,8 --- 13,0
14.06.2021 16,4 17,0 17,5 18,1 26,8 8,4 68 0,0 8225 1,3 5,4 --- 12,9
13.06.2021 16,6 16,9 15,3 15,1 21,8 9,7 68 0,0 8171 1,7 6,2 --- 12,9
12.06.2021 17,3 18,0 17,2 18,1 22,4 11,8 76 0,0 4038 1,9 10,0 --- 10,6
11.06.2021 17,2 18,3 19,4 20,3 28,7 12,0 73 0,0 6935 1,3 5,5 --- 12,5
10.06.2021 17,0 18,2 19,1 19,3 26,4 13,0 79 0,2 6813 1,3 5,7 --- 12,4
09.06.2021 16,6 17,8 19,6 19,2 27,2 14,0 82 21,2 6804 1,1 8,0 --- 11,9
08.06.2021 16,1 17,1 18,3 18,1 23,1 13,1 83 0,0 5065 1,2 5,3 --- 12,0
07.06.2021 16,1 16,8 17,2 17,1 20,1 14,5 85 0,0 3261 1,4 6,1 --- 10,8
06.06.2021 16,5 17,2 16,4 16,2 18,7 14,8 93 4,2 1675 1,4 5,3 --- 4,1
05.06.2021 16,6 18,0 19,7 18,6 24,9 15,2 90 17,6 4810 1,4 10,3 --- 8,3
04.06.2021 16,0 17,6 19,7 19,1 27,3 14,0 86 3,6 5545 1,2 10,6 --- 11,1
03.06.2021 15,5 16,7 19,0 19,4 27,5 11,5 69 2,3 5388 1,1 7,5 --- 10,6
02.06.2021 14,7 16,1 18,6 18,6 27,8 9,1 61 0,0 7644 1,3 6,5 --- 12,2
01.06.2021 14,1 15,1 16,0 16,0 24,6 6,2 60 0,0 7879 1,5 7,1 --- 13,1
31.05.2021 13,7 14,8 15,9 15,3 23,0 7,6 65 0,0 7939 1,5 5,8 --- 13,3
30.05.2021 13,2 13,8 13,6 12,6 20,2 4,7 74 0,0 6330 1,6 6,6 --- 12,8
29.05.2021 13,2 14,0 12,9 11,3 17,3 5,9 81 0,3 6422 1,9 7,7 --- 12,1
28.05.2021 12,5 13,5 14,3 12,5 19,2 8,3 74 0,0 6654 1,6 7,4 --- 10,5
27.05.2021 12,3 12,4 10,0 9,6 11,8 8,2 88 5,4 1555 3,4 9,3 --- 4,4
26.05.2021 12,6 12,8 10,0 9,2 12,3 7,1 88 4,4 2937 3,8 9,4 --- 8,7
25.05.2021 13,1 13,4 9,5 8,8 11,9 7,7 85 2,8 3330 5,1 17,2 --- 9,0
24.05.2021 12,8 13,7 14,1 13,3 19,3 8,5 65 0,4 6317 3,3 12,8 --- 10,9
23.05.2021 12,4 12,7 10,9 10,5 16,0 5,8 74 0,1 3799 3,6 11,2 --- 8,2
22.05.2021 13,0 13,1 10,1 10,1 13,4 8,1 80 1,2 2562 5,1 15,5 --- 8,0
21.05.2021 13,4 14,3 13,9 13,6 16,8 10,0 59 0,0 5137 5,3 15,2 --- 11,4
20.05.2021 12,9 14,0 13,6 11,9 16,4 7,8 77 0,6 5616 2,2 9,6 --- 10,8
19.05.2021 12,5 13,0 11,1 9,9 16,2 5,2 84 3,9 4528 1,7 8,7 --- 10,9
18.05.2021 12,6 13,2 10,8 9,9 13,9 6,8 89 7,9 3626 1,7 8,4 --- 8,8
17.05.2021 12,5 13,1 11,1 10,4 14,6 7,9 89 3,2 3574 1,3 12,9 --- 7,6
16.05.2021 12,6 13,2 11,2 10,3 15,8 6,7 86 17,8 4529 3,4 16,2 --- 8,1
15.05.2021 12,7 13,2 10,6 10,4 14,7 7,2 82 1,6 3773 2,6 13,5 --- 9,8
14.05.2021 12,9 13,8 12,8 12,2 19,0 7,9 79 0,5 3748 1,5 8,5 --- 8,3
13.05.2021 12,8 13,6 13,0 12,3 17,0 8,7 81 0,0 3156 1,0 7,6 --- 8,6
12.05.2021 12,8 13,9 13,4 12,7 15,3 10,0 83 1,0 3084 1,4 6,4 --- 9,9
11.05.2021 12,7 13,8 14,1 13,7 16,6 11,3 93 4,2 2004 1,3 6,6 --- 8,1
10.05.2021 12,5 14,2 18,1 18,2 22,5 12,3 62 4,1 3760 3,1 13,0 --- 10,0
09.05.2021 10,5 12,5 19,7 19,4 27,4 9,4 48 0,0 7066 2,8 11,4 --- 12,8
08.05.2021 9,1 9,4 9,7 9,4 14,8 1,6 57 0,3 5009 2,3 9,9 --- 11,7
07.05.2021 9,1 9,4 6,7 6,1 10,6 3,1 77 0,0 4239 2,3 9,6 --- 9,5
06.05.2021 8,6 8,5 6,8 6,3 11,2 2,3 78 0,1 3312 3,0 9,2 --- 9,9
05.05.2021 8,8 8,5 6,2 5,9 8,9 3,6 79 0,0 3964 5,2 15,2 --- 10,7
04.05.2021 9,5 9,2 8,8 9,2 11,1 5,9 69 0,0 1701 6,5 22,1 --- 4,5
03.05.2021 9,5 9,7 8,3 7,6 13,2 1,1 62 0,1 5888 2,9 11,0 --- 11,4
02.05.2021 10,1 10,1 7,1 6,9 9,9 3,2 69 0,1 2229 1,9 10,4 --- 7,0
01.05.2021 10,2 10,9 10,3 9,3 13,2 5,5 73 0,2 4298 1,3 5,8 --- 11,4
30.04.2021 10,1 10,2 8,2 7,5 11,5 5,0 78 0,3 2513 2,1 7,8 --- 9,4
29.04.2021 10,8 11,5 10,5 10,0 14,4 5,5 79 0,7 4189 3,8 12,3 --- 9,5
28.04.2021 9,9 10,8 12,2 11,5 20,3 1,3 51 0,0 5745 1,6 9,4 --- 11,1
27.04.2021 9,5 10,1 9,4 8,1 15,0 0,6 47 0,0 6761 3,2 8,9 --- 11,6
26.04.2021 9,1 9,7 7,8 6,6 13,9 -1,4 51 0,0 6796 2,2 7,3 --- 11,7
25.04.2021 9,2 9,6 5,9 4,6 10,3 -1,3 68 0,0 6177 2,5 9,6 --- 11,8
24.04.2021 9,3 9,8 7,1 6,3 13,2 0,1 70 0,0 5414 2,0 8,0 --- 11,2
23.04.2021 9,2 9,7 6,8 6,1 13,5 -0,5 69 0,0 5099 1,7 7,0 --- 10,7
22.04.2021 9,4 10,1 6,8 5,9 11,2 0,2 64 0,0 6129 2,4 10,4 --- 11,1
21.04.2021 9,4 10,4 10,6 10,2 16,9 4,1 73 0,5 4581 2,0 8,4 --- 10,5
20.04.2021 8,3 9,5 9,8 9,0 17,5 2,3 81 0,5 5791 1,7 10,8 --- 9,9
19.04.2021 7,8 8,6 8,5 7,9 13,9 4,1 85 1,3 3035 1,7 7,0 --- 8,7
18.04.2021 6,9 7,6 7,7 7,4 14,0 4,7 86 2,2 2313 0,9 7,5 --- 6,3
17.04.2021 6,6 6,5 5,2 5,1 8,5 0,7 69 0,0 1852 1,6 5,5 --- 7,9
16.04.2021 6,4 6,7 6,2 5,5 10,1 1,1 63 0,0 3578 1,9 9,1 --- 9,5
15.04.2021 6,2 5,9 2,7 2,4 8,0 -2,9 80 0,1 2863 1,6 10,7 --- 7,4
14.04.2021 6,4 6,3 2,7 2,1 8,3 -1,6 83 0,2 4285 1,5 11,3 --- 10,2
13.04.2021 6,5 6,4 3,0 2,5 8,3 -2,4 79 0,1 4032 1,3 9,2 --- 9,9
12.04.2021 6,9 6,9 3,5 2,9 8,1 -0,5 85 2,8 3359 1,4 9,6 --- 8,2
11.04.2021 7,3 7,7 7,3 7,4 13,4 1,3 87 18,2 1290 2,2 9,8 --- 3,1
10.04.2021 6,5 7,1 7,4 7,2 9,6 5,0 90 0,3 1622 1,2 4,9 --- 5,8
09.04.2021 5,3 5,5 7,5 7,1 13,8 1,1 57 0,0 4730 2,7 11,0 --- 10,3
08.04.2021 5,0 4,5 2,5 2,3 5,6 -0,7 76 0,7 2579 2,6 8,2 --- 9,0
07.04.2021 5,2 4,2 0,8 0,6 3,8 -1,6 88 1,9 1440 3,8 10,4 --- 4,8
06.04.2021 5,9 4,9 0,9 0,5 4,7 -2,1 84 0,2 2540 3,5 13,3 --- 6,5
05.04.2021 7,3 6,3 1,9 1,9 4,4 -2,4 83 2,0 1428 4,3 14,1 --- 4,1
04.04.2021 8,1 8,1 5,2 4,5 9,9 0,9 74 0,0 3411 1,3 6,2 --- 9,2
03.04.2021 8,6 8,7 6,0 5,5 10,1 1,4 70 0,0 3457 2,4 10,8 --- 9,1
02.04.2021 9,2 9,5 7,0 6,3 10,6 4,0 71 0,0 3417 2,9 11,7 --- 8,0
01.04.2021 9,3 10,5 13,1 13,2 21,9 4,0 56 0,0 4207 2,2 11,7 --- 9,3
31.03.2021 8,5 9,4 13,9 14,4 23,7 4,1 45 0,0 4966 1,5 7,6 --- 9,8
30.03.2021 7,8 8,8 13,2 13,7 23,7 3,5 45 0,0 5048 1,1 3,8 --- 9,8
29.03.2021 7,0 8,0 13,7 13,3 19,8 8,2 49 0,0 4793 3,8 9,9 --- 9,7
28.03.2021 6,1 6,0 7,7 7,7 12,4 1,7 69 0,0 2518 3,7 14,2 --- 8,5
27.03.2021 7,0 7,0 6,2 6,2 11,5 1,7 75 2,0 2484 4,6 15,7 --- 6,8
26.03.2021 6,7 7,7 10,9 10,6 15,2 5,4 69 0,0 4065 2,6 10,7 --- 9,1
25.03.2021 5,7 6,3 9,0 9,4 15,2 2,7 68 0,1 3313 1,5 5,4 --- 9,0
24.03.2021 5,1 5,3 7,2 7,2 13,8 0,5 71 0,0 4480 2,3 8,2 --- 9,5
23.03.2021 5,0 5,2 5,4 5,2 9,3 2,6 79 0,0 2004 1,3 5,4 --- 6,3
22.03.2021 4,6 4,7 4,1 3,9 6,5 1,9 85 0,3 1631 2,1 8,2 --- 5,9
21.03.2021 4,4 4,3 4,4 4,3 6,3 2,3 75 0,0 1452 3,1 12,6 --- 5,8
20.03.2021 3,8 3,5 1,5 0,8 5,5 -4,7 59 0,0 4145 1,2 5,6 --- 8,7
19.03.2021 4,1 3,8 2,0 1,7 6,4 -0,9 78 0,1 2614 2,6 12,5 --- 7,5
18.03.2021 4,1 3,6 1,1 0,9 6,0 -2,5 89 1,1 2156 1,0 4,4 --- 6,7
17.03.2021 4,7 4,3 1,9 1,7 4,4 -1,7 81 0,0 1844 1,6 7,2 --- 6,5
16.03.2021 4,8 4,8 3,9 3,9 7,9 1,6 80 0,7 2336 2,1 11,0 --- 6,4
15.03.2021 4,8 4,7 4,1 4,1 7,1 2,2 87 2,4 1564 3,4 11,5 --- 4,9
14.03.2021 4,7 4,5 4,0 4,0 6,7 2,1 86 0,4 1833 5,0 11,7 --- 6,9
13.03.2021 5,1 5,0 4,7 5,1 7,7 2,6 87 9,9 1503 7,1 19,2 --- 4,8
12.03.2021 5,2 5,3 5,9 5,9 8,7 2,6 76 4,2 2181 6,5 17,1 --- 6,0
11.03.2021 4,8 5,3 7,4 7,8 11,7 5,0 80 3,9 1645 6,3 18,1 --- 4,5
10.03.2021 3,9 4,2 5,1 4,8 7,9 2,2 85 0,0 2205 2,1 10,7 --- 6,8
09.03.2021 3,4 3,0 1,7 1,7 3,6 -1,2 92 4,6 1022 1,6 7,4 --- 3,0
08.03.2021 3,4 2,9 1,3 1,3 5,3 -0,5 84 0,2 1296 1,0 3,4 --- 4,9
07.03.2021 3,4 2,5 -0,1 -0,3 5,8 -5,1 80 0,1 3290 1,6 7,4 --- 7,8
06.03.2021 4,1 3,0 -0,1 -0,1 6,6 -5,2 75 0,0 3339 1,1 5,7 --- 7,7
05.03.2021 5,1 4,9 2,4 1,8 5,0 -2,2 77 0,2 2811 2,5 8,4 --- 7,2
04.03.2021 5,3 5,2 5,1 5,7 7,9 1,9 90 6,1 518 1,4 7,0 --- 1,5
03.03.2021 5,0 4,8 5,9 6,4 14,2 -0,4 79 0,0 2513 1,5 7,0 --- 8,2
02.03.2021 5,1 5,1 4,5 4,4 15,1 -1,9 85 0,1 2691 1,1 5,1 --- 7,9
01.03.2021 5,2 5,1 4,5 4,0 10,5 0,2 92 0,0 2241 1,7 9,1 --- 6,6
28.02.2021 5,1 5,1 5,0 4,7 10,4 -0,1 85 0,0 3055 1,7 5,4 --- 7,2
27.02.2021 5,2 4,7 2,7 2,9 4,8 0,6 91 0,0 851 1,3 5,4 --- 2,4
26.02.2021 6,1 6,0 5,3 6,2 11,1 2,6 87 0,0 791 1,4 7,8 --- 2,0
25.02.2021 6,1 6,6 11,1 12,2 17,9 7,9 66 0,0 2614 1,8 8,4 --- 7,1
24.02.2021 5,7 6,5 11,9 13,0 17,9 8,5 70 0,0 2465 1,9 7,2 --- 7,4
23.02.2021 4,8 5,4 10,2 10,8 16,9 5,3 72 0,0 2301 1,7 8,7 --- 7,4
22.02.2021 4,3 4,3 6,3 7,0 14,3 -0,4 78 0,0 2309 1,2 5,8 --- 6,1
21.02.2021 4,3 4,8 9,9 11,1 17,6 5,1 59 0,0 2656 1,6 10,6 --- 6,9
20.02.2021 3,7 4,1 8,5 9,1 16,4 2,6 77 0,0 2258 1,4 8,3 --- 6,9
19.02.2021 3,3 3,7 6,1 6,2 9,0 3,3 80 0,0 2118 3,2 12,6 --- 6,2
18.02.2021 2,4 2,6 5,1 5,8 9,7 -0,8 82 0,2 1176 1,5 9,3 --- 5,6
17.02.2021 1,7 1,7 5,5 5,8 8,5 3,3 89 0,0 1839 3,6 10,5 --- 5,8
16.02.2021 1,6 1,0 3,9 4,3 10,6 0,8 86 0,0 1666 1,6 9,3 --- 4,7
15.02.2021 1,5 0,9 -2,0 -1,4 2,1 -7,7 63 0,1 889 2,1 7,2 --- 2,4
14.02.2021 1,7 0,9 -10,4 -9,1 1,1 -19,3 75 0,4 2455 0,9 7,3 --- 6,9
13.02.2021 1,9 1,2 -11,5 -10,4 -1,9 -17,5 85 0,1 2477 1,4 7,1 --- 6,6
12.02.2021 2,1 1,4 -11,4 -10,6 -4,3 -15,7 87 0,0 2039 2,1 10,7 --- 5,7
11.02.2021 2,1 1,5 -6,5 -6,1 -0,1 -11,7 85 1,2 1529 1,4 5,3 --- 5,3
10.02.2021 2,3 1,5 -12,8 -12,4 -5,3 -19,6 87 0,0 2080 1,0 7,0 --- 6,3
09.02.2021 2,4 1,8 -12,8 -11,9 -6,9 -15,1 85 0,0 1738 1,4 3,7 --- 6,3
08.02.2021 2,6 1,7 -8,0 -8,3 -6,8 -10,4 83 0,0 1489 2,6 8,8 --- 6,8
07.02.2021 3,1 2,2 -4,8 -4,8 -1,8 -7,2 88 0,0 442 6,8 19,6 --- 0,4
06.02.2021 4,0 3,5 1,2 1,4 4,0 -2,1 96 3,2 451 4,1 15,5 --- 0,3
05.02.2021 4,3 4,0 3,6 3,9 6,3 1,3 93 3,0 367 1,3 6,9 --- ---
04.02.2021 4,9 5,3 5,9 6,2 8,6 4,0 86 0,9 1426 2,9 10,1 --- 4,0
03.02.2021 4,1 5,2 8,8 9,2 10,8 7,1 89 1,4 477 4,4 12,8 --- 0,8
02.02.2021 2,5 2,7 4,8 5,0 8,9 2,3 96 1,2 456 2,9 11,2 --- 0,5
01.02.2021 1,9 1,2 0,8 0,8 3,1 -1,1 94 1,5 555 1,5 7,7 --- 1,3
31.01.2021 2,4 1,3 -1,5 -1,5 3,1 -6,1 82 0,0 1645 2,2 8,0 --- 5,1
30.01.2021 3,4 3,2 1,3 1,2 6,5 -1,4 85 0,4 853 3,4 9,9 --- 2,7
29.01.2021 2,7 2,8 4,1 4,2 9,2 0,9 95 0,0 514 2,9 10,0 --- 1,4
28.01.2021 2,2 1,9 1,4 1,5 2,4 0,7 99 0,0 221 1,7 8,1 --- ---
27.01.2021 2,2 1,6 0,4 0,5 1,3 -0,6 92 0,0 483 3,3 8,7 --- ---
26.01.2021 2,2 1,5 0,0 0,2 1,6 -1,4 92 0,2 375 3,2 11,4 --- ---
25.01.2021 2,5 1,6 -1,8 -1,3 2,0 -3,7 95 1,6 899 1,2 6,1 --- 3,9
24.01.2021 3,1 2,3 0,2 0,5 1,7 -0,5 97 4,5 223 1,8 6,2 --- ---
23.01.2021 3,5 2,9 1,4 1,6 3,3 0,1 95 0,1 428 1,3 7,1 --- 0,3
22.01.2021 4,1 4,3 4,5 5,0 9,8 0,5 89 2,4 464 4,1 17,3 --- 0,6
21.01.2021 3,2 3,5 7,3 7,9 10,5 4,3 72 2,9 554 5,1 20,3 --- 2,0
20.01.2021 2,4 2,4 5,2 5,7 9,0 2,6 69 0,0 767 4,3 12,0 --- 2,5
19.01.2021 2,0 1,7 2,2 2,5 4,1 0,9 93 2,5 147 5,5 14,2 --- ---
18.01.2021 1,6 1,0 1,3 1,6 2,7 0,0 95 1,9 470 3,2 10,8 --- 0,6
17.01.2021 1,6 0,7 -1,7 -1,8 0,1 -3,2 91 0,0 398 1,0 4,2 --- 0,1
16.01.2021 1,8 0,9 -2,0 -2,0 -0,8 -2,8 76 0,0 384 2,0 6,2 --- ---
15.01.2021 2,0 1,1 -1,3 -1,2 0,3 -4,0 90 0,0 346 1,3 5,2 --- 0,1
14.01.2021 2,1 1,4 0,2 0,2 2,5 -0,6 84 0,1 586 1,9 9,8 --- 1,4
13.01.2021 2,1 1,3 0,7 1,0 3,5 -0,9 86 0,2 701 4,5 12,2 --- 2,3
12.01.2021 2,2 1,5 0,6 1,0 2,8 -0,9 95 1,7 190 4,4 14,7 --- ---
11.01.2021 2,4 1,4 -0,7 -0,7 0,3 -2,0 82 0,0 830 4,0 12,0 --- 3,3
10.01.2021 2,7 2,0 -0,4 -0,3 1,6 -2,2 88 0,0 667 0,9 4,2 --- 2,2
09.01.2021 2,8 2,1 -0,5 -0,5 0,4 -1,1 94 0,0 337 0,7 4,8 --- ---
08.01.2021 2,8 2,1 0,2 0,1 0,9 -0,5 99 2,5 417 1,8 7,4 --- 0,6
07.01.2021 3,0 2,2 0,2 0,2 1,0 -0,3 93 0,0 428 3,0 7,5 --- 1,2
06.01.2021 3,3 2,6 0,8 0,9 1,5 -0,1 95 0,0 140 1,8 8,3 --- ---
05.01.2021 3,3 2,6 0,6 0,7 1,5 0,3 97 1,0 251 1,7 6,1 --- ---
04.01.2021 3,4 2,7 0,1 0,2 0,6 -0,2 97 0,2 95 1,0 5,2 --- ---
03.01.2021 3,6 2,8 0,8 0,9 1,9 -0,2 89 0,2 167 1,9 8,5 --- ---
02.01.2021 3,7 3,1 1,2 1,4 2,9 0,5 88 0,0 405 0,8 6,0 --- 0,4
01.01.2021 3,8 3,1 0,8 0,8 1,9 0,0 99 2,3 251 0,4 2,8 --- ---

Mittelwerte (Temperaturen, Strahlung, rel. Feuchte, Wind), Summe (Regen) für 2021
11,4 11,5 10,6 10,3 81 590 3.156 2,1

Landesbetrieb Landwirtschaft Hessen 2009

      Werte bis 5 Uhr SommerzeitCSV-Datei: Mardorf21.csvDiagramm: Mardorf